Time;durP1;ratioP1;P1;durP2;ratioP2;P2;SDS_P1;SDS_P2;PMS_P1;PMS_P2;Temp;Humidity;BMP_temperature;BMP_pressure;BME280_temperature;BME280_humidity;BME280_pressure;Samples;Min_cycle;Max_cycle;Signal;HPM_P1;HPM_P2
2023/07/17 00:00:11;;;;;;;1.88;1.77;;;;;;;25.15;50.89;100286.84;5082096;28;20276;-66
2023/07/17 00:02:39;;;;;;;2.15;1.98;;;;;;;25.12;50.92;100282.63;5091574;28;20592;-67
2023/07/17 00:05:07;;;;;;;2.35;2.15;;;;;;;25.10;51.03;100286.28;5092073;28;20208;-66
2023/07/17 00:07:35;;;;;;;2.13;1.90;;;;;;;25.03;51.59;100289.31;5093967;28;20211;-66
2023/07/17 00:10:04;;;;;;;2.00;1.90;;;;;;;24.95;51.47;100285.53;5089788;28;20217;-66
2023/07/17 00:12:32;;;;;;;2.22;2.13;;;;;;;24.92;51.82;100285.72;5093508;28;20283;-66
2023/07/17 00:15:04;;;;;;;2.22;2.03;;;;;;;24.91;51.95;100284.91;5089889;28;20573;-66
2023/07/17 00:17:32;;;;;;;5.07;1.90;;;;;;;24.90;51.62;100288.47;5088928;28;20208;-66
2023/07/17 00:20:02;;;;;;;2.67;2.20;;;;;;;24.87;52.12;100288.69;5090869;28;20201;-66
2023/07/17 00:22:30;;;;;;;2.47;2.28;;;;;;;24.84;52.15;100288.88;5081641;28;20197;-66
2023/07/17 00:24:59;;;;;;;4.60;2.05;;;;;;;24.84;52.16;100288.88;5082348;28;20205;-67
2023/07/17 00:27:27;;;;;;;2.63;2.10;;;;;;;24.81;52.45;100283.81;5080571;28;20336;-66
2023/07/17 00:29:55;;;;;;;2.88;2.58;;;;;;;24.80;52.15;100292.69;5073175;28;20699;-66
2023/07/17 00:32:26;;;;;;;2.80;2.60;;;;;;;24.73;52.68;100296.66;5081851;28;20606;-66
2023/07/17 00:34:54;;;;;;;3.03;2.60;;;;;;;24.63;53.01;100288.50;5088939;28;20197;-67
2023/07/17 00:37:22;;;;;;;3.08;2.25;;;;;;;24.52;53.35;100297.16;5093056;28;20208;-66
2023/07/17 00:39:51;;;;;;;3.15;2.47;;;;;;;24.42;53.62;100293.44;5090374;28;20690;-67
2023/07/17 00:42:19;;;;;;;2.80;2.50;;;;;;;24.38;53.70;100289.28;5091518;28;20250;-65
2023/07/17 00:44:47;;;;;;;3.83;2.47;;;;;;;24.38;53.69;100293.69;5082317;28;20224;-66
2023/07/17 00:47:15;;;;;;;3.33;2.33;;;;;;;24.40;53.81;100286.56;5093300;28;20201;-67
2023/07/17 00:49:47;;;;;;;2.60;2.40;;;;;;;24.39;53.94;100291.00;5092754;28;20226;-68
2023/07/17 00:52:17;;;;;;;2.92;2.72;;;;;;;24.32;54.20;100292.28;5089288;28;20201;-65
2023/07/17 00:54:45;;;;;;;3.85;2.63;;;;;;;24.22;54.39;100296.47;5092625;28;20656;-65
2023/07/17 00:57:16;;;;;;;2.70;2.33;;;;;;;24.17;54.77;100291.50;5092216;28;20209;-66
2023/07/17 00:59:44;;;;;;;3.90;2.60;;;;;;;24.18;54.54;100287.06;5092371;28;20246;-65
2023/07/17 01:02:14;;;;;;;3.90;2.85;;;;;;;24.18;54.51;100287.91;5086467;28;20205;-66
2023/07/17 01:04:46;;;;;;;4.05;2.75;;;;;;;24.23;54.54;100277.94;5092545;28;20226;-66
2023/07/17 01:07:15;;;;;;;4.07;2.83;;;;;;;24.29;54.47;100276.69;5087829;28;20212;-65
2023/07/17 01:09:43;;;;;;;3.22;2.58;;;;;;;24.33;54.43;100281.66;5092826;28;20196;-67
2023/07/17 01:12:11;;;;;;;2.78;2.58;;;;;;;24.35;54.48;100281.56;5086136;28;20296;-63
2023/07/17 01:14:40;;;;;;;2.33;2.13;;;;;;;24.38;54.49;100275.25;5092149;28;20555;-65
2023/07/17 01:17:08;;;;;;;3.85;3.15;;;;;;;24.36;54.21;100270.06;5091593;28;20295;-66
2023/07/17 01:19:36;;;;;;;5.18;2.83;;;;;;;24.40;54.32;100271.59;5087289;28;20228;-66
2023/07/17 01:22:15;;;;;;;2.50;2.30;;;;;;;24.36;54.37;100272.72;5090090;28;20285;-66
2023/07/17 01:24:44;;;;;;;3.35;2.80;;;;;;;24.28;54.50;100280.28;5087673;28;20254;-66
2023/07/17 01:27:13;;;;;;;2.47;2.28;;;;;;;24.26;54.73;100272.47;5092183;28;20619;-67
2023/07/17 01:29:41;;;;;;;4.45;2.40;;;;;;;24.23;54.44;100271.81;5087706;28;20207;-65
2023/07/17 01:32:09;;;;;;;3.53;2.60;;;;;;;24.19;54.72;100272.94;5091510;28;20204;-65
2023/07/17 01:34:38;;;;;;;4.20;2.40;;;;;;;24.17;54.63;100277.50;5089844;28;20632;-66
2023/07/17 01:37:06;;;;;;;3.28;2.95;;;;;;;24.11;55.03;100274.28;5091952;28;20208;-64
2023/07/17 01:39:34;;;;;;;3.50;2.90;;;;;;;24.02;55.33;100274.91;5091023;28;20197;-65
2023/07/17 01:42:04;;;;;;;5.93;2.70;;;;;;;23.96;55.39;100282.31;5081058;28;20299;-67
2023/07/17 01:44:32;;;;;;;3.75;2.67;;;;;;;23.88;55.87;100279.34;5089657;28;20215;-66
2023/07/17 01:47:00;;;;;;;3.08;2.88;;;;;;;23.82;56.07;100280.56;5091716;28;20247;-66
2023/07/17 01:49:28;;;;;;;3.03;2.83;;;;;;;23.72;56.26;100282.09;5091169;28;20204;-66
2023/07/17 01:51:56;;;;;;;5.18;2.88;;;;;;;23.66;56.71;100283.28;5084320;28;20679;-66
2023/07/17 01:54:24;;;;;;;2.97;2.63;;;;;;;23.65;56.70;100278.97;5090835;28;20213;-65
2023/07/17 01:56:52;;;;;;;3.72;2.83;;;;;;;23.62;56.96;100290.53;5091455;28;20677;-66
2023/07/17 01:59:21;;;;;;;3.20;2.50;;;;;;;23.62;56.88;100289.69;5090438;28;20216;-66
2023/07/17 02:01:49;;;;;;;3.15;2.85;;;;;;;23.61;56.80;100290.63;5081195;28;20209;-66
2023/07/17 02:04:18;;;;;;;3.30;2.95;;;;;;;23.55;56.91;100297.09;5090863;28;20200;-65
2023/07/17 02:06:45;;;;;;;3.53;2.97;;;;;;;23.50;57.12;100298.34;5091630;28;20201;-65
2023/07/17 02:09:13;;;;;;;4.03;2.80;;;;;;;23.51;57.22;100295.59;5091553;28;20222;-66
2023/07/17 02:11:41;;;;;;;5.68;3.20;;;;;;;23.54;57.17;100295.41;5091011;28;20296;-67
2023/07/17 02:14:09;;;;;;;3.05;2.85;;;;;;;23.58;56.80;100301.34;5088637;28;20229;-66
2023/07/17 02:16:39;;;;;;;8.27;3.40;;;;;;;23.61;56.72;100302.00;5091478;28;20292;-66
2023/07/17 02:19:07;;;;;;;3.13;2.83;;;;;;;23.61;56.68;100296.72;5091702;28;20200;-66
2023/07/17 02:21:35;;;;;;;2.90;2.67;;;;;;;23.65;56.25;100307.06;5089121;28;20192;-66
2023/07/17 02:24:04;;;;;;;5.35;2.95;;;;;;;23.67;56.27;100305.19;5085306;28;20205;-65
2023/07/17 02:26:32;;;;;;;3.47;3.17;;;;;;;23.70;56.23;100307.66;5072678;28;20233;-66
2023/07/17 02:29:00;;;;;;;3.15;2.85;;;;;;;23.73;56.11;100310.09;5070236;28;20660;-66
2023/07/17 02:31:28;;;;;;;8.02;3.20;;;;;;;23.74;55.88;100303.88;5088125;28;20217;-65
2023/07/17 02:33:57;;;;;;;3.92;2.45;;;;;;;23.74;56.14;100303.88;5090443;28;20629;-66
2023/07/17 02:36:25;;;;;;;4.18;3.17;;;;;;;23.70;55.81;100310.28;5091184;28;20691;-65
2023/07/17 02:38:53;;;;;;;3.22;2.92;;;;;;;23.65;55.89;100313.19;5090325;28;20230;-65
2023/07/17 02:41:21;;;;;;;2.80;2.60;;;;;;;23.69;55.93;100319.13;5090439;28;20200;-65
2023/07/17 02:43:51;;;;;;;2.92;2.72;;;;;;;23.70;55.79;100316.38;5090459;28;20408;-66
2023/07/17 02:46:19;;;;;;;3.05;2.70;;;;;;;23.71;56.17;100330.38;5077150;28;20548;-66
2023/07/17 02:48:47;;;;;;;4.85;2.92;;;;;;;23.72;55.80;100327.69;5087210;28;20228;-65
2023/07/17 02:51:16;;;;;;;3.40;2.85;;;;;;;23.72;55.82;100324.19;5088751;28;20575;-66
2023/07/17 02:53:45;;;;;;;2.90;2.60;;;;;;;23.70;56.00;100326.06;5090872;28;20209;-66
2023/07/17 02:56:13;;;;;;;3.70;2.88;;;;;;;23.68;55.90;100330.59;5090113;28;20217;-66
2023/07/17 02:58:42;;;;;;;4.55;3.20;;;;;;;23.66;55.96;100321.91;5089936;28;20514;-66
2023/07/17 03:01:10;;;;;;;3.95;3.17;;;;;;;23.70;56.16;100331.34;5089193;28;20203;-66
2023/07/17 03:03:39;;;;;;;3.15;2.63;;;;;;;23.70;55.62;100323.44;5091409;28;20200;-68
2023/07/17 03:06:07;;;;;;;4.78;3.05;;;;;;;23.67;55.51;100326.25;5089860;28;20201;-66
2023/07/17 03:08:36;;;;;;;4.20;2.97;;;;;;;23.68;55.63;100335.84;5084828;28;20196;-65
2023/07/17 03:11:04;;;;;;;4.53;3.00;;;;;;;23.55;56.36;100333.09;5094597;28;20230;-66
2023/07/17 03:13:32;;;;;;;3.75;2.90;;;;;;;23.51;56.55;100331.59;5095066;28;20228;-65
2023/07/17 03:16:00;;;;;;;3.70;3.40;;;;;;;23.46;56.76;100334.50;5093628;28;20208;-66
2023/07/17 03:18:28;;;;;;;5.57;2.97;;;;;;;23.49;56.66;100331.69;5094350;28;20281;-66
2023/07/17 03:20:56;;;;;;;5.55;3.33;;;;;;;23.46;56.68;100326.59;5094120;28;20212;-64
2023/07/17 03:23:24;;;;;;;4.40;3.22;;;;;;;23.49;56.71;100336.94;5091195;28;20245;-66
2023/07/17 03:25:56;;;;;;;2.90;2.70;;;;;;;23.56;56.63;100340.88;5086800;28;20258;-65
2023/07/17 03:28:24;;;;;;;3.38;3.08;;;;;;;23.66;56.66;100340.31;5090271;28;20619;-67
2023/07/17 03:30:52;;;;;;;5.38;3.60;;;;;;;23.70;55.64;100347.13;5093720;28;20246;-66
2023/07/17 03:33:20;;;;;;;4.65;2.95;;;;;;;23.66;56.08;100346.44;5094365;28;20284;-66
2023/07/17 03:35:49;;;;;;;4.10;3.10;;;;;;;23.59;56.37;100340.69;5087861;28;20759;-66
2023/07/17 03:38:17;;;;;;;4.95;3.10;;;;;;;23.58;56.66;100344.25;5093409;28;20236;-67
2023/07/17 03:40:45;;;;;;;4.53;3.30;;;;;;;23.60;56.35;100342.41;5093647;28;20210;-67
2023/07/17 03:43:14;;;;;;;5.97;3.33;;;;;;;23.68;56.38;100346.38;5093718;28;21115;-66
2023/07/17 03:45:42;;;;;;;3.50;3.00;;;;;;;23.71;56.33;100348.81;5092529;28;20215;-66
2023/07/17 03:48:10;;;;;;;5.05;3.50;;;;;;;23.71;55.82;100351.44;5093552;28;20197;-67
2023/07/17 03:50:38;;;;;;;3.10;2.80;;;;;;;23.67;56.32;100355.19;5093157;28;20563;-66
2023/07/17 03:53:06;;;;;;;3.30;3.00;;;;;;;23.65;56.17;100360.53;5093972;28;20227;-66
2023/07/17 03:55:34;;;;;;;4.38;3.35;;;;;;;23.65;56.04;100357.91;5093535;28;20665;-65
2023/07/17 03:58:03;;;;;;;3.67;3.38;;;;;;;23.62;55.74;100355.44;5093901;28;20204;-66
2023/07/17 04:00:32;;;;;;;3.67;3.38;;;;;;;23.57;56.38;100347.84;5091869;28;20561;-66
2023/07/17 04:03:00;;;;;;;4.60;3.38;;;;;;;23.57;56.31;100353.09;5083287;28;20205;-66
2023/07/17 04:05:28;;;;;;;4.15;3.15;;;;;;;23.55;56.35;100344.44;5090590;28;20254;-66
2023/07/17 04:07:57;;;;;;;4.38;3.33;;;;;;;23.61;56.24;100346.72;5093713;28;20250;-66
2023/07/17 04:10:27;;;;;;;3.75;3.33;;;;;;;23.71;56.07;100346.16;5084014;28;20274;-66
2023/07/17 04:12:55;;;;;;;3.80;3.38;;;;;;;23.76;55.70;100337.06;5091990;28;20217;-67
2023/07/17 04:15:23;;;;;;;3.60;3.30;;;;;;;23.83;55.37;100348.06;5091095;28;20291;-67
2023/07/17 04:17:53;;;;;;;6.07;3.15;;;;;;;23.88;55.15;100353.88;5092095;28;20209;-68
2023/07/17 04:20:21;;;;;;;3.97;2.90;;;;;;;23.90;55.36;100359.91;5093851;28;20281;-66
2023/07/17 04:22:49;;;;;;;4.45;3.10;;;;;;;23.89;55.13;100362.63;5087275;28;20215;-66
2023/07/17 04:25:17;;;;;;;5.05;3.50;;;;;;;23.88;54.97;100358.31;5074235;28;20213;-66
2023/07/17 04:27:45;;;;;;;4.35;3.30;;;;;;;23.84;55.03;100363.75;5091357;28;20240;-65
2023/07/17 04:30:14;;;;;;;3.28;2.97;;;;;;;23.75;55.51;100364.34;5073230;28;20207;-66
2023/07/17 04:32:42;;;;;;;7.13;3.05;;;;;;;23.77;55.69;100364.22;5088523;28;20216;-67
2023/07/17 04:35:11;;;;;;;3.20;2.90;;;;;;;23.79;55.39;100362.34;5075039;28;20207;-67
2023/07/17 04:37:41;;;;;;;3.33;3.03;;;;;;;23.80;55.33;100358.78;5079930;28;20609;-67
2023/07/17 04:40:10;;;;;;;3.92;3.30;;;;;;;23.82;55.08;100367.41;5079445;28;20200;-67
2023/07/17 04:42:39;;;;;;;3.80;3.50;;;;;;;23.85;55.19;100367.22;5079922;28;20197;-68
2023/07/17 04:45:08;;;;;;;4.63;3.10;;;;;;;23.91;54.89;100361.59;5086525;28;20205;-66
2023/07/17 04:47:36;;;;;;;3.65;3.35;;;;;;;23.97;54.91;100365.59;5076367;28;20208;-65
2023/07/17 04:50:05;;;;;;;7.10;3.20;;;;;;;24.07;54.52;100367.56;5080616;28;20212;-67
2023/07/17 04:52:34;;;;;;;6.80;3.63;;;;;;;24.25;53.87;100370.00;5093033;28;20216;-66
2023/07/17 04:55:02;;;;;;;3.67;3.30;;;;;;;24.35;53.80;100365.84;5091586;28;20204;-66
2023/07/17 04:57:31;;;;;;;5.47;3.33;;;;;;;24.42;53.45;100372.44;5092921;28;20205;-67
2023/07/17 04:59:58;;;;;;;4.47;3.10;;;;;;;24.48;53.40;100369.41;5092427;28;20249;-67
2023/07/17 05:02:26;;;;;;;4.20;3.10;;;;;;;24.59;53.15;100384.53;5091885;28;20211;-66
2023/07/17 05:04:55;;;;;;;4.70;3.38;;;;;;;24.70;52.58;100387.31;5091752;28;20205;-67
2023/07/17 05:07:23;;;;;;;8.05;3.28;;;;;;;24.69;52.68;100392.69;5083106;28;20196;-67
2023/07/17 05:09:52;;;;;;;5.15;3.50;;;;;;;24.64;52.75;100382.44;5087789;28;20206;-67
2023/07/17 05:12:20;;;;;;;3.72;3.10;;;;;;;24.62;52.66;100386.97;5090339;28;20209;-67
2023/07/17 05:14:48;;;;;;;4.60;3.40;;;;;;;24.77;52.82;100387.75;5092734;28;20610;-67
2023/07/17 05:17:16;;;;;;;4.50;3.00;;;;;;;25.51;51.09;100396.91;5079275;28;20200;-66
2023/07/17 05:19:44;;;;;;;3.13;2.88;;;;;;;26.54;47.69;100401.16;5081833;28;20845;-66
2023/07/17 05:22:12;;;;;;;5.28;2.90;;;;;;;27.41;46.14;100384.09;5086544;28;20205;-66
2023/07/17 05:24:41;;;;;;;3.28;2.90;;;;;;;28.23;43.68;100394.50;5073511;28;20201;-66
2023/07/17 05:27:11;;;;;;;3.53;2.85;;;;;;;29.25;41.33;100392.41;5072045;28;20278;-66
2023/07/17 05:29:39;;;;;;;5.15;3.17;;;;;;;29.02;40.85;100389.88;5072061;28;20644;-66
2023/07/17 05:32:07;;;;;;;5.90;2.85;;;;;;;28.40;42.16;100401.97;5080302;28;20221;-67
2023/07/17 05:34:35;;;;;;;5.70;3.13;;;;;;;28.17;42.79;100410.91;5085277;28;20211;-66
2023/07/17 05:37:05;;;;;;;4.70;3.05;;;;;;;28.39;42.89;100415.34;5084391;28;20213;-66
2023/07/17 05:39:33;;;;;;;7.57;2.80;;;;;;;27.99;42.84;100402.59;5092244;28;20230;-66
2023/07/17 05:42:01;;;;;;;2.83;2.63;;;;;;;27.46;44.42;100411.03;5091908;28;20232;-67
2023/07/17 05:44:30;;;;;;;4.18;3.20;;;;;;;27.07;45.49;100424.63;5092542;28;20200;-67
2023/07/17 05:46:58;;;;;;;9.98;8.55;;;;;;;26.71;46.31;100429.84;5092152;28;20239;-67
2023/07/17 05:49:27;;;;;;;6.15;3.38;;;;;;;26.49;46.54;100419.97;5090184;28;20208;-67
2023/07/17 05:51:55;;;;;;;5.55;2.97;;;;;;;26.39;46.68;100403.06;5089783;28;20201;-67
2023/07/17 05:54:23;;;;;;;6.60;3.80;;;;;;;26.42;47.55;100391.44;5090230;28;20208;-65
2023/07/17 05:56:50;;;;;;;5.78;3.30;;;;;;;27.21;45.85;100382.09;5091886;28;20205;-66
2023/07/17 05:59:18;;;;;;;4.10;3.45;;;;;;;27.61;44.21;100382.53;5092310;28;20216;-67
2023/07/17 06:01:48;;;;;;;5.20;3.15;;;;;;;27.49;43.89;100378.19;5092526;28;20557;-66
2023/07/17 06:04:16;;;;;;;6.13;3.80;;;;;;;27.20;44.64;100402.44;5091440;28;20219;-68
2023/07/17 06:06:44;;;;;;;6.07;3.40;;;;;;;26.90;45.32;100402.91;5089699;28;20655;-66
2023/07/17 06:09:12;;;;;;;6.10;3.53;;;;;;;26.72;45.97;100413.03;5086835;28;20207;-66
2023/07/17 06:11:40;;;;;;;5.65;3.30;;;;;;;26.72;46.49;100396.31;5088186;28;20217;-66
2023/07/17 06:14:08;;;;;;;5.28;3.75;;;;;;;27.20;46.18;100388.38;5085069;28;20298;-68
2023/07/17 06:16:36;;;;;;;5.45;3.45;;;;;;;27.92;44.76;100386.34;5087151;28;20732;-68
2023/07/17 06:19:05;;;;;;;7.43;3.70;;;;;;;30.19;39.32;100372.75;5091362;28;20302;-67
2023/07/17 06:21:34;;;;;;;4.70;3.20;;;;;;;32.42;35.10;100374.22;5091361;28;20280;-66
2023/07/17 06:24:02;;;;;;;3.97;3.28;;;;;;;34.66;31.25;100364.59;5084636;28;20285;-68
2023/07/17 06:26:30;;;;;;;3.13;2.88;;;;;;;36.38;27.72;100363.19;5079434;28;20236;-65
2023/07/17 06:28:58;;;;;;;3.42;2.85;;;;;;;36.25;27.86;100358.38;5071172;28;20205;-66
2023/07/17 06:31:26;;;;;;;3.95;2.60;;;;;;;36.52;27.27;100349.00;5084594;28;21338;-68
2023/07/17 06:33:54;;;;;;;4.57;2.55;;;;;;;36.59;25.96;100351.81;5081112;28;20663;-67
2023/07/17 06:36:24;;;;;;;4.05;2.63;;;;;;;35.33;26.69;100359.88;5090080;28;20208;-68
2023/07/17 06:38:51;;;;;;;3.97;2.90;;;;;;;33.60;29.37;100360.53;5091296;28;20557;-69
2023/07/17 06:41:19;;;;;;;5.05;2.85;;;;;;;32.37;31.73;100366.66;5081520;28;20620;-65
2023/07/17 06:43:47;;;;;;;6.50;3.28;;;;;;;31.37;33.51;100358.53;5084385;28;20340;-64
2023/07/17 06:46:17;;;;;;;5.15;3.13;;;;;;;30.51;35.90;100369.88;5080649;28;20240;-64
2023/07/17 06:48:45;;;;;;;3.22;2.90;;;;;;;29.72;37.33;100368.94;5084323;28;20200;-63
2023/07/17 06:51:13;;;;;;;5.75;2.95;;;;;;;29.12;38.85;100368.69;5087964;28;20197;-64
2023/07/17 06:53:43;;;;;;;4.57;3.63;;;;;;;28.60;39.52;100371.19;5084218;28;20575;-67
2023/07/17 06:56:11;;;;;;;7.03;3.60;;;;;;;28.29;40.32;100377.28;5090936;28;20259;-69
2023/07/17 06:58:39;;;;;;;9.65;3.25;;;;;;;28.07;41.10;100373.69;5088322;28;20205;-68
2023/07/17 07:01:08;;;;;;;8.00;3.60;;;;;;;27.91;41.57;100382.00;5089067;28;20647;-69
2023/07/17 07:03:36;;;;;;;5.85;2.95;;;;;;;28.07;41.22;100386.09;5081273;28;20229;-67
2023/07/17 07:06:05;;;;;;;7.00;3.25;;;;;;;28.42;40.61;100378.81;5089149;28;20228;-67
2023/07/17 07:08:33;;;;;;;10.13;3.30;;;;;;;28.72;39.66;100389.69;5083650;28;20232;-67
2023/07/17 07:11:04;;;;;;;13.75;3.95;;;;;;;28.80;39.26;100403.19;5087100;28;20196;-66
2023/07/17 07:13:32;;;;;;;9.00;3.42;;;;;;;28.73;39.55;100405.50;5080267;28;20644;-66
2023/07/17 07:16:00;;;;;;;5.22;3.55;;;;;;;28.63;39.59;100407.22;5082651;28;20211;-67
2023/07/17 07:18:28;;;;;;;8.55;3.47;;;;;;;28.57;39.86;100397.97;5087936;28;20604;-68
2023/07/17 07:20:56;;;;;;;8.15;3.08;;;;;;;28.49;40.02;100392.41;5081639;28;20362;-66
2023/07/17 07:23:24;;;;;;;6.38;3.10;;;;;;;28.36;40.12;100405.81;5091151;28;20197;-68
2023/07/17 07:25:52;;;;;;;4.70;3.38;;;;;;;28.17;40.54;100405.59;5089693;28;20204;-65
2023/07/17 07:28:22;;;;;;;4.13;3.08;;;;;;;28.01;40.88;100408.59;5073897;28;20228;-67
2023/07/17 07:30:55;;;;;;;4.82;2.92;;;;;;;27.86;40.79;100401.84;5080599;28;20209;-67
2023/07/17 07:33:23;;;;;;;3.97;2.80;;;;;;;27.72;41.26;100402.06;5087090;28;20236;-69
2023/07/17 07:35:52;;;;;;;6.72;2.97;;;;;;;27.65;41.36;100402.56;5076889;28;20204;-65
2023/07/17 07:38:20;;;;;;;5.95;2.92;;;;;;;27.58;40.90;100403.97;5086424;28;20232;-67
2023/07/17 07:40:48;;;;;;;6.63;2.85;;;;;;;27.63;40.95;100407.09;5091246;28;20603;-66
2023/07/17 07:43:16;;;;;;;7.60;2.95;;;;;;;27.62;40.85;100410.72;5086362;28;20204;-65
2023/07/17 07:45:46;;;;;;;3.15;2.60;;;;;;;27.58;41.09;100406.63;5090116;28;20553;-68
2023/07/17 07:48:14;;;;;;;8.82;3.15;;;;;;;27.53;41.47;100405.28;5081605;28;20288;-65
2023/07/17 07:50:42;;;;;;;7.15;3.20;;;;;;;27.45;42.19;100404.06;5088431;28;20201;-67
2023/07/17 07:53:10;;;;;;;7.47;2.75;;;;;;;27.39;42.37;100409.81;5084953;28;20216;-62
2023/07/17 07:55:38;;;;;;;7.55;3.22;;;;;;;27.30;42.45;100396.47;5086613;28;20205;-64
2023/07/17 07:58:06;;;;;;;6.30;2.97;;;;;;;27.24;42.59;100399.56;5093282;28;20196;-64
2023/07/17 08:00:34;;;;;;;9.43;3.20;;;;;;;27.31;42.62;100401.63;5087860;28;20236;-66
2023/07/17 08:03:03;;;;;;;6.38;3.00;;;;;;;28.58;41.48;100406.75;5088499;28;20250;-63
2023/07/17 08:05:31;;;;;;;8.98;3.47;;;;;;;29.06;38.34;100399.25;5086272;28;20637;-64
2023/07/17 08:07:59;;;;;;;4.97;2.75;;;;;;;28.99;38.60;100406.03;5090062;28;20216;-65
2023/07/17 08:10:27;;;;;;;5.18;2.58;;;;;;;28.67;39.48;100411.28;5083311;28;20227;-67
2023/07/17 08:12:55;;;;;;;8.93;2.90;;;;;;;28.39;40.10;100402.94;5088910;28;20197;-70
2023/07/17 08:15:23;;;;;;;5.95;2.92;;;;;;;28.26;40.29;100406.66;5091270;28;20232;-70
2023/07/17 08:17:51;;;;;;;4.65;2.78;;;;;;;28.13;40.64;100409.44;5090862;28;20207;-66
2023/07/17 08:20:21;;;;;;;5.85;3.10;;;;;;;28.03;40.97;100403.19;5087196;28;20257;-63
2023/07/17 08:22:54;;;;;;;6.90;2.92;;;;;;;27.94;40.93;100394.16;5084613;28;20254;-66
2023/07/17 08:25:24;;;;;;;6.18;2.90;;;;;;;27.90;41.23;100404.13;5085722;28;20675;-64
2023/07/17 08:27:52;;;;;;;4.78;3.00;;;;;;;27.85;41.37;100401.03;5084788;28;20245;-68
2023/07/17 08:30:20;;;;;;;9.05;3.03;;;;;;;27.91;41.04;100397.91;5086711;28;20576;-64
2023/07/17 08:32:48;;;;;;;8.77;3.17;;;;;;;27.94;39.90;100397.63;5085507;28;20304;-65
2023/07/17 08:35:17;;;;;;;3.33;2.75;;;;;;;27.86;39.92;100402.69;5082510;28;20240;-65
2023/07/17 08:37:46;;;;;;;5.65;3.00;;;;;;;27.72;39.86;100400.25;5082104;28;20727;-66
2023/07/17 08:40:14;;;;;;;3.88;2.80;;;;;;;27.66;40.34;100403.38;5085319;28;20223;-64
2023/07/17 08:42:46;;;;;;;4.35;3.08;;;;;;;27.77;40.13;100395.47;5080512;28;20197;-69
2023/07/17 08:45:15;;;;;;;4.75;2.95;;;;;;;28.04;39.86;100400.41;5085704;28;20757;-66
2023/07/17 08:47:44;;;;;;;5.32;2.80;;;;;;;28.22;38.93;100403.41;5087988;28;20288;-66
2023/07/17 08:50:13;;;;;;;4.68;2.35;;;;;;;28.39;38.51;100389.69;5083292;28;20560;-69
2023/07/17 08:52:45;;;;;;;3.25;2.45;;;;;;;28.48;38.60;100381.94;5086891;28;20201;-70
2023/07/17 08:55:14;;;;;;;5.65;2.67;;;;;;;28.64;38.78;100377.91;5079936;28;20304;-70
2023/07/17 08:57:43;;;;;;;4.93;3.05;;;;;;;28.89;38.72;100370.59;5085842;28;20634;-69
2023/07/17 09:00:15;;;;;;;4.55;2.88;;;;;;;29.04;38.19;100365.84;5092438;28;20284;-64
2023/07/17 09:02:44;;;;;;;8.70;2.97;;;;;;;29.17;38.11;100355.88;5087938;28;20216;-69
2023/07/17 09:05:13;;;;;;;5.50;2.72;;;;;;;29.33;38.51;100350.09;5085254;28;20208;-67
2023/07/17 09:07:41;;;;;;;4.20;2.90;;;;;;;29.48;38.22;100356.75;5078583;28;20208;-67
2023/07/17 09:10:21;;;;;;;5.75;3.17;;;;;;;29.42;37.91;100354.66;5088959;28;20245;-69
2023/07/17 09:12:57;;;;;;;5.20;3.13;;;;;;;29.35;37.65;100350.84;5085303;28;20746;-65
2023/07/17 09:15:29;;;;;;;3.10;2.63;;;;;;;29.40;37.70;100358.41;5084525;28;20220;-67
2023/07/17 09:17:57;;;;;;;10.88;2.88;;;;;;;29.46;37.32;100353.41;5081798;28;20259;-68
2023/07/17 09:20:27;;;;;;;4.13;3.17;;;;;;;29.60;37.02;100349.56;5083116;28;20222;-67
2023/07/17 09:22:57;;;;;;;6.32;3.15;;;;;;;29.74;37.11;100345.72;5077748;28;20286;-66
2023/07/17 09:25:28;;;;;;;6.75;2.90;;;;;;;29.83;37.35;100348.44;5080136;28;20307;-65
2023/07/17 09:27:58;;;;;;;5.03;2.95;;;;;;;29.86;37.28;100344.66;5089551;28;20240;-64
2023/07/17 09:30:27;;;;;;;6.18;3.22;;;;;;;29.88;37.68;100339.22;5087449;28;20213;-65
2023/07/17 09:33:05;;;;;;;5.07;3.00;;;;;;;29.96;36.98;100334.06;5084797;28;20196;-66
2023/07/17 09:35:36;;;;;;;7.72;2.95;;;;;;;30.11;36.83;100335.34;5086007;28;20687;-66
2023/07/17 09:38:09;;;;;;;8.13;2.55;;;;;;;30.20;36.67;100342.56;5085290;28;20291;-65
2023/07/17 09:40:39;;;;;;;4.55;2.88;;;;;;;30.17;36.01;100340.16;5090984;28;20214;-64
2023/07/17 09:43:07;;;;;;;9.07;3.08;;;;;;;30.20;36.76;100331.09;5082394;28;20566;-66
2023/07/17 09:45:35;;;;;;;3.90;3.05;;;;;;;30.42;36.37;100330.00;5086638;28;20193;-62
2023/07/17 09:48:05;;;;;;;4.18;2.88;;;;;;;30.71;35.61;100327.31;5085500;28;20204;-62
2023/07/17 09:50:33;;;;;;;6.40;2.97;;;;;;;31.15;34.85;100331.25;5080643;28;20670;-65
2023/07/17 09:53:04;;;;;;;6.82;2.97;;;;;;;31.70;33.65;100325.19;5079940;28;20577;-63
2023/07/17 09:55:35;;;;;;;7.30;2.72;;;;;;;32.57;32.63;100327.34;5089346;28;20240;-65
2023/07/17 09:58:07;;;;;;;3.85;3.00;;;;;;;33.70;30.36;100322.16;5084960;28;20209;-68
2023/07/17 10:00:39;;;;;;;5.05;2.92;;;;;;;35.00;28.60;100314.38;5083325;28;20200;-66
2023/07/17 10:03:09;;;;;;;5.03;2.67;;;;;;;36.19;26.67;100307.28;5082175;28;20316;-68
2023/07/17 10:05:38;;;;;;;4.18;2.60;;;;;;;36.92;25.21;100312.06;5078398;28;20561;-65
2023/07/17 10:08:08;;;;;;;3.05;2.40;;;;;;;37.61;24.38;100300.28;5083116;28;20250;-67
2023/07/17 10:10:37;;;;;;;4.03;2.42;;;;;;;38.17;23.70;100301.38;5082014;28;20254;-66
2023/07/17 10:13:09;;;;;;;5.72;2.97;;;;;;;38.35;23.31;100292.06;5081083;28;20204;-67
2023/07/17 10:15:38;;;;;;;2.30;2.10;;;;;;;38.86;23.12;100284.63;5084411;28;20623;-65
2023/07/17 10:18:10;;;;;;;4.07;2.22;;;;;;;39.08;22.42;100287.28;5083946;28;20205;-69
2023/07/17 10:20:38;;;;;;;2.33;1.85;;;;;;;39.52;22.33;100280.69;5085239;28;20218;-69
2023/07/17 10:23:23;;;;;;;2.55;2.35;;;;;;;39.75;21.91;100278.50;5071902;28;20211;-71
2023/07/17 10:25:51;;;;;;;3.50;2.10;;;;;;;38.87;22.91;100272.81;5084319;28;20206;-70
2023/07/17 10:28:32;;;;;;;2.63;2.42;;;;;;;37.38;24.48;100273.50;5082827;28;20228;-67
2023/07/17 10:31:04;;;;;;;4.05;2.72;;;;;;;36.12;26.07;100276.78;5081272;28;20216;-73
2023/07/17 10:33:37;;;;;;;2.58;2.33;;;;;;;35.08;27.76;100284.91;5063634;28;20200;-74
2023/07/17 10:36:05;;;;;;;4.68;2.45;;;;;;;34.64;28.60;100278.25;5080433;28;20692;-75
2023/07/17 10:38:37;;;;;;;2.95;2.60;;;;;;;34.60;28.79;100278.59;5088597;28;20215;-73
2023/07/17 10:41:06;;;;;;;2.97;2.50;;;;;;;34.72;28.65;100291.63;5081907;28;20557;-74
2023/07/17 10:43:36;;;;;;;4.03;2.42;;;;;;;35.48;28.05;100284.97;5080358;28;20219;-70
2023/07/17 10:46:09;;;;;;;2.78;2.33;;;;;;;36.46;26.33;100282.59;5086401;28;20223;-71
2023/07/17 10:48:37;;;;;;;2.55;2.33;;;;;;;37.45;24.90;100267.22;5082026;28;20200;-72
2023/07/17 10:51:05;;;;;;;2.70;2.22;;;;;;;38.17;24.30;100263.69;5081198;28;20216;-72
2023/07/17 10:53:33;;;;;;;2.78;2.58;;;;;;;37.27;25.24;100260.53;5085457;28;20235;-73
2023/07/17 10:56:01;;;;;;;4.65;2.17;;;;;;;36.54;26.45;100259.41;5091800;28;20298;-73
2023/07/17 10:58:29;;;;;;;3.03;2.22;;;;;;;35.78;27.13;100259.22;5087000;28;20558;-74
2023/07/17 11:01:04;;;;;;;4.15;2.45;;;;;;;35.24;28.31;100253.72;5066507;28;20312;-76
2023/07/17 11:03:33;;;;;;;3.55;2.40;;;;;;;35.26;28.22;100244.50;5085539;28;20204;-72
2023/07/17 11:06:01;;;;;;;3.00;2.30;;;;;;;34.82;28.77;100246.78;5081630;28;20205;-71
2023/07/17 11:08:29;;;;;;;6.82;2.22;;;;;;;34.21;29.72;100248.09;5083790;28;20199;-70
2023/07/17 11:10:57;;;;;;;4.05;2.08;;;;;;;33.37;30.42;100239.16;5091230;28;20223;-72
2023/07/17 11:13:31;;;;;;;3.60;2.15;;;;;;;32.99;31.29;100245.78;5070703;28;20211;-71
2023/07/17 11:16:07;;;;;;;2.40;2.20;;;;;;;33.33;31.15;100232.47;5084540;28;20628;-72
2023/07/17 11:18:46;;;;;;;2.13;2.03;;;;;;;33.57;30.52;100232.56;5084002;28;20224;-73
2023/07/17 11:21:15;;;;;;;4.25;2.38;;;;;;;33.33;30.66;100232.47;5081748;28;20624;-74
2023/07/17 11:23:50;;;;;;;3.58;2.25;;;;;;;32.81;31.38;100241.34;5077530;28;20204;-74
2023/07/17 11:26:20;;;;;;;5.40;2.80;;;;;;;32.40;32.13;100232.13;5091101;28;20246;-71
2023/07/17 11:28:50;;;;;;;2.35;2.15;;;;;;;32.23;33.02;100236.50;5092407;28;20204;-71
2023/07/17 11:31:21;;;;;;;5.57;2.70;;;;;;;32.12;33.28;100231.41;5083869;28;20242;-72